Time;durP1;ratioP1;P1;durP2;ratioP2;P2;SDS_P1;SDS_P2;PMS_P1;PMS_P2;Temp;Humidity;BMP_temperature;BMP_pressure;BME280_temperature;BME280_humidity;BME280_pressure;Samples;Min_cycle;Max_cycle;Signal;HPM_P1;HPM_P2
2023/09/13 00:00:54;;;;;;;11.35;5.70;;;;;;;-141.50;100.00;63355.56;5018937;28;20426;-77
2023/09/13 00:03:22;;;;;;;11.40;6.45;;;;;;;-141.50;100.00;63355.56;5021092;28;20065;-77
2023/09/13 00:05:48;;;;;;;13.20;6.82;;;;;;;-141.50;100.00;63355.56;5024268;28;20041;-78
2023/09/13 00:08:15;;;;;;;16.02;8.52;;;;;;;-141.50;100.00;63355.56;5025925;28;20049;-77
2023/09/13 00:10:44;;;;;;;16.08;7.63;;;;;;;-141.50;100.00;63355.56;5021761;28;20129;-77
2023/09/13 00:13:12;;;;;;;21.65;9.75;;;;;;;-141.50;100.00;63355.56;5025216;28;20045;-77
2023/09/13 00:15:44;;;;;;;17.85;8.88;;;;;;;-141.50;100.00;63355.56;5021415;28;20100;-76
2023/09/13 00:18:14;;;;;;;18.40;7.82;;;;;;;-141.50;100.00;63355.56;5018501;28;20074;-77
2023/09/13 00:20:42;;;;;;;17.73;8.27;;;;;;;-141.50;100.00;63355.56;5024562;28;20110;-78
2023/09/13 00:23:09;;;;;;;14.55;7.75;;;;;;;-141.50;100.00;63355.56;5024374;28;20046;-78
2023/09/13 00:25:36;;;;;;;14.25;8.15;;;;;;;-141.50;100.00;63355.56;5021360;28;20121;-77
2023/09/13 00:28:03;;;;;;;12.80;7.72;;;;;;;-141.50;100.00;63355.56;5024462;28;20137;-78
2023/09/13 00:30:30;;;;;;;19.00;7.55;;;;;;;-141.50;100.00;63355.56;5017185;28;20058;-77
2023/09/13 00:32:56;;;;;;;14.65;7.53;;;;;;;-141.50;100.00;63355.56;5022770;28;20695;-77
2023/09/13 00:35:23;;;;;;;13.07;7.20;;;;;;;-141.50;100.00;63355.56;5019227;28;20092;-77
2023/09/13 00:37:50;;;;;;;12.07;6.22;;;;;;;-141.50;100.00;63355.56;5017624;28;20056;-78
2023/09/13 00:40:18;;;;;;;15.88;6.18;;;;;;;-141.50;100.00;63355.56;5030756;28;20060;-78
2023/09/13 00:42:45;;;;;;;11.70;6.60;;;;;;;-141.50;100.00;63355.56;5024672;28;20034;-77
2023/09/13 00:45:13;;;;;;;10.73;6.20;;;;;;;-141.50;100.00;63355.56;5022848;28;20059;-77
2023/09/13 00:47:41;;;;;;;8.48;5.80;;;;;;;-141.50;100.00;63355.56;5023932;28;20041;-77
2023/09/13 00:50:11;;;;;;;13.80;4.95;;;;;;;-141.50;100.00;63355.56;5032786;28;20464;-77
2023/09/13 00:52:39;;;;;;;9.65;5.10;;;;;;;-141.50;100.00;63355.56;5021242;28;21979;-77
2023/09/13 00:55:09;;;;;;;11.25;4.78;;;;;;;-141.50;100.00;63355.56;5002920;28;20064;-77
2023/09/13 00:57:36;;;;;;;10.35;4.68;;;;;;;-141.50;100.00;63355.56;5019817;28;20052;-77
2023/09/13 01:00:10;;;;;;;8.45;4.28;;;;;;;-141.50;100.00;63355.56;5020723;28;20045;-77
2023/09/13 01:02:40;;;;;;;6.35;4.00;;;;;;;-141.50;100.00;63355.56;5019515;28;20155;-77
2023/09/13 01:05:09;;;;;;;7.63;4.20;;;;;;;-141.50;100.00;63355.56;5038144;28;20392;-78
2023/09/13 01:07:38;;;;;;;7.55;3.92;;;;;;;-141.50;100.00;63355.56;5019229;28;20053;-76
2023/09/13 01:10:06;;;;;;;7.70;4.20;;;;;;;-141.50;100.00;63355.56;5021846;28;20061;-77
2023/09/13 01:12:33;;;;;;;6.50;3.92;;;;;;;-141.50;100.00;63355.56;5022027;28;20049;-77
2023/09/13 01:15:02;;;;;;;9.23;4.20;;;;;;;-141.50;100.00;63355.56;5023373;28;20424;-76
2023/09/13 01:17:57;;;;;;;8.63;4.00;;;;;;;-141.50;100.00;63355.56;5016177;28;20046;-77
2023/09/13 01:20:45;;;;;;;6.33;4.30;;;;;;;-141.50;100.00;63355.56;5037859;28;20052;-76
2023/09/13 01:23:48;;;;;;;7.28;4.13;;;;;;;-141.50;100.00;63355.56;5035253;28;20033;-77
2023/09/13 01:26:44;;;;;;;7.70;4.00;;;;;;;-141.50;100.00;63355.56;5017572;28;20049;-77
2023/09/13 01:29:15;;;;;;;9.05;4.32;;;;;;;-141.50;100.00;63355.56;5001441;28;20049;-78
2023/09/13 01:31:43;;;;;;;6.80;4.03;;;;;;;-141.50;100.00;63355.56;5017057;28;20065;-78
2023/09/13 01:34:10;;;;;;;8.93;3.92;;;;;;;-141.50;100.00;63355.56;5022263;28;20137;-76
2023/09/13 01:36:41;;;;;;;11.23;4.25;;;;;;;-141.50;100.00;63355.56;5017551;28;20049;-77
2023/09/13 01:39:08;;;;;;;8.07;4.57;;;;;;;-141.50;100.00;63355.56;5022488;28;20045;-76
2023/09/13 01:41:45;;;;;;;12.30;4.72;;;;;;;-141.50;100.00;63355.56;5021042;28;20060;-76
2023/09/13 01:44:14;;;;;;;8.65;4.63;;;;;;;-141.50;100.00;63355.56;5021618;28;21019;-77
2023/09/13 01:46:45;;;;;;;10.40;4.60;;;;;;;-141.50;100.00;63355.56;5022926;28;21475;-77
2023/09/13 01:49:13;;;;;;;9.20;4.82;;;;;;;-141.50;100.00;63355.56;5019114;28;20049;-78
2023/09/13 01:51:41;;;;;;;7.10;4.03;;;;;;;-141.50;100.00;63355.56;5023068;28;20061;-77
2023/09/13 01:54:09;;;;;;;9.05;4.38;;;;;;;-141.50;100.00;63355.56;5020739;28;20060;-78
2023/09/13 01:56:35;;;;;;;12.75;4.80;;;;;;;-141.50;100.00;63355.56;5037990;28;20407;-78
2023/09/13 01:59:02;;;;;;;11.30;4.80;;;;;;;-141.50;100.00;63355.56;5021529;28;20504;-78
2023/09/13 02:01:29;;;;;;;8.65;4.70;;;;;;;-141.50;100.00;63355.56;5019711;28;20049;-77
2023/09/13 02:03:56;;;;;;;12.73;4.80;;;;;;;-141.50;100.00;63355.56;5019412;28;20046;-77
2023/09/13 02:06:23;;;;;;;6.65;4.05;;;;;;;-141.50;100.00;63355.56;5013576;28;20065;-79
2023/09/13 02:08:51;;;;;;;9.90;4.93;;;;;;;-141.50;100.00;63355.56;5013475;28;20056;-78
2023/09/13 02:11:18;;;;;;;8.85;4.20;;;;;;;-141.50;100.00;63355.56;5015334;28;20049;-77
2023/09/13 02:13:46;;;;;;;7.53;4.20;;;;;;;-141.50;100.00;63355.56;5017509;28;20515;-78
2023/09/13 02:16:19;;;;;;;8.80;4.35;;;;;;;-141.50;100.00;63355.56;5001444;28;20052;-79
2023/09/13 02:18:45;;;;;;;8.57;4.25;;;;;;;-141.50;100.00;63355.56;5035941;28;20049;-78
2023/09/13 02:21:12;;;;;;;7.47;4.40;;;;;;;-141.50;100.00;63355.56;5016647;28;20037;-77
2023/09/13 02:23:41;;;;;;;8.40;4.20;;;;;;;-141.50;100.00;63355.56;5013652;28;20081;-77
2023/09/13 02:26:22;;;;;;;8.13;4.18;;;;;;;-141.50;100.00;63355.56;5019857;28;20052;-77
2023/09/13 02:28:51;;;;;;;10.90;4.55;;;;;;;-141.50;100.00;63355.56;5003535;28;20069;-76
2023/09/13 02:31:25;;;;;;;8.02;4.10;;;;;;;-141.50;100.00;63355.56;5016800;28;20404;-79
2023/09/13 02:33:53;;;;;;;7.82;4.05;;;;;;;-141.50;100.00;63355.56;5038253;28;20774;-77
2023/09/13 02:36:22;;;;;;;7.70;4.22;;;;;;;-141.50;100.00;63355.56;5022232;28;20570;-78
2023/09/13 02:38:50;;;;;;;8.07;4.28;;;;;;;-141.50;100.00;63355.56;5023277;28;20041;-77
2023/09/13 02:41:16;;;;;;;6.85;3.95;;;;;;;-141.50;100.00;63355.56;5018325;28;20056;-78
2023/09/13 02:43:43;;;;;;;7.65;3.72;;;;;;;-141.50;100.00;63355.56;5024820;28;20045;-78
2023/09/13 02:46:11;;;;;;;8.10;4.05;;;;;;;-141.50;100.00;63355.56;5026086;28;20135;-78
2023/09/13 02:48:39;;;;;;;7.75;3.97;;;;;;;-141.50;100.00;63355.56;5023023;28;20046;-77
2023/09/13 02:51:12;;;;;;;6.45;3.72;;;;;;;-141.50;100.00;63355.56;5007000;28;20048;-78
2023/09/13 02:53:39;;;;;;;8.27;4.65;;;;;;;-141.50;100.00;63355.56;5022691;28;20056;-77
2023/09/13 02:56:06;;;;;;;9.32;3.92;;;;;;;-141.50;100.00;63355.56;5021491;28;20038;-75
2023/09/13 02:58:33;;;;;;;7.03;3.95;;;;;;;-141.50;100.00;63355.56;5022830;28;20049;-75
2023/09/13 03:01:03;;;;;;;6.75;4.07;;;;;;;-141.50;100.00;63355.56;5020008;28;20038;-76
2023/09/13 03:03:32;;;;;;;8.20;3.90;;;;;;;-141.50;100.00;63355.56;5006451;28;20459;-76
2023/09/13 03:06:20;;;;;;;11.98;4.18;;;;;;;-141.50;100.00;63355.56;5021135;28;20049;-78
2023/09/13 03:08:47;;;;;;;7.72;3.97;;;;;;;-141.50;100.00;63355.56;5002602;28;20049;-77
2023/09/13 03:11:17;;;;;;;6.72;4.03;;;;;;;-141.50;100.00;63355.56;5022326;28;20053;-77
2023/09/13 03:13:44;;;;;;;6.82;3.72;;;;;;;-141.50;100.00;63355.56;5021217;28;20060;-74
2023/09/13 03:16:17;;;;;;;5.75;4.00;;;;;;;-141.50;100.00;63355.56;5024643;28;20057;-78
2023/09/13 03:18:45;;;;;;;6.55;3.75;;;;;;;-141.50;100.00;63355.56;5021471;28;20576;-78
2023/09/13 03:21:15;;;;;;;8.00;4.28;;;;;;;-141.50;100.00;63355.56;5036548;28;20049;-78
2023/09/13 03:23:44;;;;;;;9.05;4.38;;;;;;;-141.50;100.00;63355.56;5004464;28;20065;-78
2023/09/13 03:26:26;;;;;;;8.70;4.40;;;;;;;-141.50;100.00;63355.56;5017494;28;20065;-78
2023/09/13 03:28:55;;;;;;;6.15;4.30;;;;;;;-141.50;100.00;63355.56;5013570;28;20111;-77
2023/09/13 03:31:25;;;;;;;9.20;3.95;;;;;;;-141.50;100.00;63355.56;5015047;28;20057;-77
2023/09/13 03:33:56;;;;;;;11.52;4.28;;;;;;;-141.50;100.00;63355.56;5017526;28;20053;-77
2023/09/13 03:36:28;;;;;;;7.80;4.65;;;;;;;-141.50;100.00;63355.56;5020893;28;20152;-78
2023/09/13 03:38:57;;;;;;;8.63;4.85;;;;;;;-141.50;100.00;63355.56;5019767;28;20577;-77
2023/09/13 03:41:25;;;;;;;10.55;4.70;;;;;;;-141.50;100.00;63355.56;5037764;28;20107;-78
2023/09/13 03:43:53;;;;;;;7.22;4.47;;;;;;;-141.50;100.00;63355.56;5005095;28;20052;-76
2023/09/13 03:46:20;;;;;;;6.10;3.88;;;;;;;-141.50;100.00;63355.56;5023908;28;20167;-78
2023/09/13 03:48:51;;;;;;;8.15;4.25;;;;;;;-141.50;100.00;63355.56;5020812;28;20046;-77
2023/09/13 03:51:19;;;;;;;6.45;4.40;;;;;;;-141.50;100.00;63355.56;5037840;28;20049;-77
2023/09/13 03:53:46;;;;;;;8.23;4.70;;;;;;;-141.50;100.00;63355.56;5017577;28;20044;-78
2023/09/13 03:56:13;;;;;;;9.13;5.10;;;;;;;-141.50;100.00;63355.56;5033229;28;20041;-77
2023/09/13 03:58:41;;;;;;;7.22;4.82;;;;;;;-141.50;100.00;63355.56;5011788;28;20054;-78
2023/09/13 04:01:07;;;;;;;9.18;4.93;;;;;;;-141.50;100.00;63355.56;5016328;28;20131;-78
2023/09/13 04:03:34;;;;;;;9.75;5.00;;;;;;;-141.50;100.00;63355.56;5017542;28;20052;-78
2023/09/13 04:06:04;;;;;;;7.13;4.68;;;;;;;-141.50;100.00;63355.56;5011159;28;21108;-78
2023/09/13 04:08:31;;;;;;;7.65;4.97;;;;;;;-141.50;100.00;63355.56;5016106;28;20056;-78
2023/09/13 04:10:58;;;;;;;8.30;4.82;;;;;;;-141.50;100.00;63355.56;5000253;28;20053;-78
2023/09/13 04:13:31;;;;;;;7.20;4.63;;;;;;;-141.50;100.00;63355.56;5013681;28;20462;-78
2023/09/13 04:16:06;;;;;;;8.15;4.82;;;;;;;-141.50;100.00;63355.56;5022399;28;20259;-78
2023/09/13 04:18:34;;;;;;;9.48;4.93;;;;;;;-141.50;100.00;63355.56;5037120;28;20550;-78
2023/09/13 04:21:01;;;;;;;6.32;4.45;;;;;;;-141.50;100.00;63355.56;5013316;28;20045;-76
2023/09/13 04:23:28;;;;;;;8.13;4.70;;;;;;;-141.50;100.00;63355.56;5019960;28;20065;-78
2023/09/13 04:25:56;;;;;;;7.75;5.03;;;;;;;-141.50;100.00;63355.56;5019823;28;20424;-77
2023/09/13 04:28:24;;;;;;;9.32;5.43;;;;;;;-141.50;100.00;63355.56;5014033;28;20052;-78
2023/09/13 04:30:51;;;;;;;11.77;5.88;;;;;;;-141.50;100.00;63355.56;5019735;28;20095;-78
2023/09/13 04:33:52;;;;;;;10.52;5.55;;;;;;;-141.50;100.00;63355.56;5016100;28;20046;-78
2023/09/13 04:36:23;;;;;;;10.07;5.60;;;;;;;-141.50;100.00;63355.56;5034275;28;20768;-77
2023/09/13 04:38:51;;;;;;;10.35;5.53;;;;;;;-141.50;100.00;63355.56;5018353;28;20717;-77
2023/09/13 04:41:18;;;;;;;11.93;5.90;;;;;;;-141.50;100.00;63355.56;5016511;28;20133;-78
2023/09/13 04:43:45;;;;;;;8.35;5.05;;;;;;;-141.50;100.00;63355.56;5001359;28;20087;-78
2023/09/13 04:46:14;;;;;;;10.68;5.90;;;;;;;-141.50;100.00;63355.56;5017851;28;20419;-77
2023/09/13 04:48:40;;;;;;;11.95;6.50;;;;;;;-141.50;100.00;63355.56;5021267;28;20053;-78
2023/09/13 04:51:10;;;;;;;10.05;5.70;;;;;;;-141.50;100.00;63355.56;5011383;28;20053;-78
2023/09/13 04:53:37;;;;;;;12.80;5.53;;;;;;;-141.50;100.00;63355.56;5012424;28;20170;-78
2023/09/13 04:56:04;;;;;;;12.43;6.80;;;;;;;-141.50;100.00;63355.56;5012134;28;20096;-77
2023/09/13 04:58:36;;;;;;;11.70;6.00;;;;;;;-141.50;100.00;63355.56;5012876;28;20085;-77
2023/09/13 05:01:05;;;;;;;12.95;6.03;;;;;;;-141.50;100.00;63355.56;5013913;28;20103;-77
2023/09/13 05:03:31;;;;;;;9.68;5.90;;;;;;;-141.50;100.00;63355.56;5006589;28;20303;-78
2023/09/13 05:05:58;;;;;;;12.70;6.07;;;;;;;-141.50;100.00;63355.56;5034225;28;20553;-78
2023/09/13 05:08:25;;;;;;;14.48;6.63;;;;;;;-141.50;100.00;63355.56;5028884;28;20053;-78
2023/09/13 05:10:54;;;;;;;9.18;5.93;;;;;;;-141.50;100.00;63355.56;5011782;28;20076;-77
2023/09/13 05:13:20;;;;;;;12.27;6.00;;;;;;;-141.50;100.00;63355.56;5011416;28;20065;-78
2023/09/13 05:15:47;;;;;;;12.35;6.05;;;;;;;-141.50;100.00;63355.56;5017529;28;20047;-78
2023/09/13 05:18:14;;;;;;;11.60;6.00;;;;;;;-141.50;100.00;63355.56;5018788;28;20041;-77
2023/09/13 05:20:41;;;;;;;12.30;6.10;;;;;;;-141.50;100.00;63355.56;5034246;28;20049;-77
2023/09/13 05:23:08;;;;;;;8.50;5.47;;;;;;;-141.50;100.00;63355.56;5018135;28;20059;-78
2023/09/13 05:25:34;;;;;;;10.07;5.47;;;;;;;-141.50;100.00;63355.56;5013953;28;20718;-78
2023/09/13 05:28:02;;;;;;;8.48;5.80;;;;;;;-141.50;100.00;63355.56;5020845;28;20053;-77
2023/09/13 05:30:31;;;;;;;12.40;5.95;;;;;;;-141.50;100.00;63355.56;5019333;28;20140;-78
2023/09/13 05:32:58;;;;;;;9.98;6.10;;;;;;;-141.50;100.00;63355.56;5018822;28;20076;-77
2023/09/13 05:35:25;;;;;;;8.88;5.90;;;;;;;-141.50;100.00;63355.56;5018501;28;20499;-78
2023/09/13 05:37:52;;;;;;;10.23;6.13;;;;;;;-141.50;100.00;63355.56;5008967;28;20042;-77
2023/09/13 05:40:19;;;;;;;13.88;7.40;;;;;;;-141.50;100.00;63355.56;5020665;28;20099;-78
2023/09/13 05:42:45;;;;;;;9.75;5.95;;;;;;;-141.50;100.00;63355.56;5014233;28;20049;-78
2023/09/13 05:45:12;;;;;;;9.98;6.25;;;;;;;-141.50;100.00;63355.56;5018802;28;20123;-78
2023/09/13 05:47:39;;;;;;;13.15;6.18;;;;;;;-141.50;100.00;63355.56;5019566;28;20045;-78
2023/09/13 05:50:09;;;;;;;14.13;6.70;;;;;;;-141.50;100.00;63355.56;5013990;28;20572;-77
2023/09/13 05:52:39;;;;;;;12.32;7.03;;;;;;;-141.50;100.00;63355.56;5024729;28;20042;-75
2023/09/13 05:55:06;;;;;;;11.80;7.22;;;;;;;-141.50;100.00;63355.56;5022125;28;20136;-76
2023/09/13 05:57:33;;;;;;;13.00;7.90;;;;;;;-141.50;100.00;63355.56;5020872;28;20041;-78
2023/09/13 06:00:00;;;;;;;15.23;9.30;;;;;;;-141.50;100.00;63355.56;5019287;28;20668;-78
2023/09/13 06:02:37;;;;;;;18.92;9.25;;;;;;;-141.50;100.00;63355.56;5026517;28;20060;-78
2023/09/13 06:05:04;;;;;;;16.38;8.68;;;;;;;-141.50;100.00;63355.56;5024243;28;20099;-76
2023/09/13 06:07:34;;;;;;;19.77;8.98;;;;;;;-141.50;100.00;63355.56;5027315;28;20073;-77
2023/09/13 06:10:00;;;;;;;17.50;8.32;;;;;;;-141.50;100.00;63355.56;5024666;28;20049;-78
2023/09/13 06:12:30;;;;;;;16.35;8.07;;;;;;;-141.50;100.00;63355.56;5026828;28;20053;-78
2023/09/13 06:15:00;;;;;;;13.43;8.02;;;;;;;-141.50;100.00;63355.56;5025462;28;20049;-78
2023/09/13 06:17:27;;;;;;;14.05;8.25;;;;;;;-141.50;100.00;63355.56;5027001;28;20073;-78
2023/09/13 06:19:53;;;;;;;13.02;7.70;;;;;;;-141.50;100.00;63355.56;5025462;28;20049;-78
2023/09/13 06:22:20;;;;;;;16.98;7.63;;;;;;;-141.50;100.00;63355.56;5026988;28;20045;-77
2023/09/13 06:24:47;;;;;;;14.50;8.38;;;;;;;-141.50;100.00;63355.56;5028930;28;20096;-78
2023/09/13 06:27:14;;;;;;;15.57;7.60;;;;;;;-141.50;100.00;63355.56;5026684;28;20041;-78
2023/09/13 06:29:40;;;;;;;10.93;7.00;;;;;;;-141.50;100.00;63355.56;5018191;28;21861;-78
2023/09/13 06:32:09;;;;;;;10.23;7.03;;;;;;;-141.50;100.00;63355.56;5022238;28;20049;-77
2023/09/13 06:34:56;;;;;;;13.07;6.70;;;;;;;-141.50;100.00;63355.56;5023877;28;20919;-78
2023/09/13 06:37:25;;;;;;;11.07;6.75;;;;;;;-141.50;100.00;63355.56;5030488;28;20419;-78
2023/09/13 06:39:54;;;;;;;13.25;6.55;;;;;;;-141.50;100.00;63355.56;5027365;28;20053;-77
2023/09/13 06:42:21;;;;;;;11.32;6.15;;;;;;;-141.50;100.00;63355.56;5029621;28;20519;-78
2023/09/13 06:44:55;;;;;;;9.63;6.05;;;;;;;-141.50;100.00;63355.56;5029365;28;20508;-77
2023/09/13 06:47:38;;;;;;;12.18;6.47;;;;;;;-141.50;100.00;63355.56;5028907;28;20045;-78
2023/09/13 06:50:06;;;;;;;12.95;5.60;;;;;;;-141.50;100.00;63355.56;5027469;28;20061;-77
2023/09/13 06:52:35;;;;;;;8.30;5.28;;;;;;;-141.50;100.00;63355.56;5028541;28;20048;-78
2023/09/13 06:55:19;;;;;;;9.43;5.00;;;;;;;-141.50;100.00;63355.56;5027982;28;21397;-76
2023/09/13 06:57:51;;;;;;;7.57;4.32;;;;;;;-141.50;100.00;63355.56;5026994;28;20042;-76
2023/09/13 07:00:21;;;;;;;7.43;4.72;;;;;;;-141.50;100.00;63355.56;5028780;28;20446;-78
2023/09/13 07:03:04;;;;;;;7.05;4.10;;;;;;;-141.50;100.00;63355.56;5027794;28;20049;-78
2023/09/13 07:05:34;;;;;;;7.00;4.40;;;;;;;-141.50;100.00;63355.56;5027191;28;20076;-78
2023/09/13 07:08:03;;;;;;;9.32;4.68;;;;;;;-141.50;100.00;63355.56;5021496;28;20774;-78
2023/09/13 07:10:30;;;;;;;10.00;3.90;;;;;;;-141.50;100.00;63355.56;5023014;28;20038;-78
2023/09/13 07:12:57;;;;;;;6.55;3.50;;;;;;;-141.50;100.00;63355.56;5026160;28;20789;-78
2023/09/13 07:15:25;;;;;;;9.85;3.90;;;;;;;-141.50;100.00;63355.56;5025980;28;20056;-78
2023/09/13 07:17:53;;;;;;;8.07;4.57;;;;;;;-141.50;100.00;63355.56;5022822;28;20121;-78
2023/09/13 07:20:21;;;;;;;7.28;4.65;;;;;;;-141.50;100.00;63355.56;5027099;28;20092;-76
2023/09/13 07:22:47;;;;;;;7.95;4.13;;;;;;;-141.50;100.00;63355.56;5032658;28;20041;-77
2023/09/13 07:25:14;;;;;;;7.85;4.15;;;;;;;-141.50;100.00;63355.56;5024888;28;20041;-78
2023/09/13 07:27:41;;;;;;;5.40;3.40;;;;;;;-141.50;100.00;63355.56;5028245;28;20065;-76
2023/09/13 07:30:09;;;;;;;7.55;4.07;;;;;;;-141.50;100.00;63355.56;5027856;28;20084;-76
2023/09/13 07:32:37;;;;;;;5.90;3.85;;;;;;;-141.50;100.00;63355.56;5022262;28;20042;-78
2023/09/13 07:35:04;;;;;;;7.13;4.22;;;;;;;-141.50;100.00;63355.56;5017439;28;20049;-78
2023/09/13 07:37:33;;;;;;;9.02;4.32;;;;;;;-141.50;100.00;63355.56;5026926;28;20041;-78
2023/09/13 07:40:00;;;;;;;7.88;3.72;;;;;;;-141.50;100.00;63355.56;5023681;28;20045;-78
2023/09/13 07:42:27;;;;;;;6.78;3.67;;;;;;;-141.50;100.00;63355.56;5024455;28;20076;-78
2023/09/13 07:44:54;;;;;;;6.53;3.67;;;;;;;-141.50;100.00;63355.56;5015400;28;20467;-78
2023/09/13 07:47:29;;;;;;;8.35;4.13;;;;;;;-141.50;100.00;63355.56;5026361;28;20499;-78
2023/09/13 07:49:59;;;;;;;6.05;4.03;;;;;;;-141.50;100.00;63355.56;5023806;28;20080;-78
2023/09/13 07:52:27;;;;;;;7.57;3.95;;;;;;;-141.50;100.00;63355.56;5024347;28;20055;-77
2023/09/13 07:55:08;;;;;;;5.35;3.78;;;;;;;-141.50;100.00;63355.56;5030927;28;20103;-78
2023/09/13 07:57:35;;;;;;;6.70;4.25;;;;;;;-141.50;100.00;63355.56;5029804;28;20056;-78
2023/09/13 08:00:06;;;;;;;7.15;3.90;;;;;;;-141.50;100.00;63355.56;5026940;28;20149;-78
2023/09/13 08:02:37;;;;;;;10.43;4.18;;;;;;;-141.50;100.00;63355.56;5027001;28;20048;-77
2023/09/13 08:05:04;;;;;;;8.57;4.03;;;;;;;-141.50;100.00;63355.56;5027263;28;20095;-77
2023/09/13 08:07:31;;;;;;;6.75;4.28;;;;;;;-141.50;100.00;63355.56;5030339;28;20045;-77
2023/09/13 08:09:58;;;;;;;11.63;4.30;;;;;;;-141.50;100.00;63355.56;5029106;28;20481;-77
2023/09/13 08:12:24;;;;;;;6.63;4.45;;;;;;;-141.50;100.00;63355.56;5029154;28;20037;-77
2023/09/13 08:14:51;;;;;;;6.72;3.65;;;;;;;-141.50;100.00;63355.56;5013735;28;20133;-78
2023/09/13 08:17:18;;;;;;;8.30;3.67;;;;;;;-141.50;100.00;63355.56;5022331;28;20056;-78
2023/09/13 08:19:46;;;;;;;7.72;3.30;;;;;;;-141.50;100.00;63355.56;5024908;28;20455;-78
2023/09/13 08:22:16;;;;;;;6.18;3.20;;;;;;;-141.50;100.00;63355.56;5021663;28;22864;-76
2023/09/13 08:25:04;;;;;;;4.88;3.10;;;;;;;-141.50;100.00;63355.56;5022406;28;20060;-77
2023/09/13 08:27:32;;;;;;;4.38;3.08;;;;;;;-141.50;100.00;63355.56;5024902;28;20132;-78
2023/09/13 08:29:59;;;;;;;4.10;2.92;;;;;;;-141.50;100.00;63355.56;5024133;28;20053;-77
2023/09/13 08:32:26;;;;;;;4.18;2.95;;;;;;;-141.50;100.00;63355.56;5025426;28;20049;-77
2023/09/13 08:34:52;;;;;;;3.88;2.78;;;;;;;-141.50;100.00;63355.56;5019445;28;20061;-78
2023/09/13 08:37:19;;;;;;;4.03;2.85;;;;;;;-141.50;100.00;63355.56;5022076;28;20053;-77
2023/09/13 08:39:49;;;;;;;4.97;3.25;;;;;;;-141.50;100.00;63355.56;5022777;28;20049;-78
2023/09/13 08:42:15;;;;;;;6.43;3.53;;;;;;;-141.50;100.00;63355.56;5024697;28;20043;-77
2023/09/13 08:44:44;;;;;;;5.00;3.17;;;;;;;-141.50;100.00;63355.56;5015776;28;20045;-78
2023/09/13 08:47:12;;;;;;;5.28;3.00;;;;;;;-141.50;100.00;63355.56;5023861;28;20056;-77
2023/09/13 08:49:39;;;;;;;6.13;3.17;;;;;;;-141.50;100.00;63355.56;5023627;28;20069;-78
2023/09/13 08:52:07;;;;;;;5.80;3.40;;;;;;;-141.50;100.00;63355.56;5023180;28;20472;-77
2023/09/13 08:54:36;;;;;;;6.22;3.30;;;;;;;-141.50;100.00;63355.56;5023647;28;20045;-77
2023/09/13 08:57:24;;;;;;;5.95;3.38;;;;;;;-141.50;100.00;63355.56;5014232;28;20114;-77
2023/09/13 08:59:51;;;;;;;5.72;3.13;;;;;;;-141.50;100.00;63355.56;5022302;28;20065;-78
2023/09/13 09:02:20;;;;;;;5.55;3.10;;;;;;;-141.50;100.00;63355.56;5024447;28;20048;-77
2023/09/13 09:04:49;;;;;;;6.03;2.70;;;;;;;-141.50;100.00;63355.56;5022653;28;20052;-77
2023/09/13 09:07:19;;;;;;;7.53;3.40;;;;;;;-141.50;100.00;63355.56;5023702;28;20710;-78
2023/09/13 09:09:47;;;;;;;5.55;3.03;;;;;;;-141.50;100.00;63355.56;5022788;28;20041;-77
2023/09/13 09:12:17;;;;;;;4.55;2.90;;;;;;;-141.50;100.00;63355.56;5018929;28;20049;-77
2023/09/13 09:14:46;;;;;;;4.63;3.00;;;;;;;-141.50;100.00;63355.56;5020785;28;20096;-78
2023/09/13 09:17:17;;;;;;;4.20;2.75;;;;;;;-141.50;100.00;63355.56;5021011;28;20205;-77
2023/09/13 09:19:44;;;;;;;5.32;3.00;;;;;;;-141.50;100.00;63355.56;5020073;28;20422;-78
2023/09/13 09:22:12;;;;;;;4.10;2.83;;;;;;;-141.50;100.00;63355.56;5023387;28;20041;-78
2023/09/13 09:24:40;;;;;;;7.25;3.30;;;;;;;-141.50;100.00;63355.56;5023721;28;20038;-77
2023/09/13 09:27:07;;;;;;;4.55;2.75;;;;;;;-141.50;100.00;63355.56;5035763;28;20044;-76
2023/09/13 09:29:39;;;;;;;5.15;2.85;;;;;;;-141.50;100.00;63355.56;5024098;28;20048;-76
2023/09/13 09:32:08;;;;;;;3.58;2.47;;;;;;;-141.50;100.00;63355.56;5023048;28;20050;-77
2023/09/13 09:34:41;;;;;;;4.78;2.90;;;;;;;-141.50;100.00;63355.56;5016018;28;20123;-77
2023/09/13 09:37:09;;;;;;;4.63;3.03;;;;;;;-141.50;100.00;63355.56;5024238;28;20052;-77
2023/09/13 09:39:39;;;;;;;6.28;3.38;;;;;;;-141.50;100.00;63355.56;5023967;28;20136;-77
2023/09/13 09:42:06;;;;;;;5.10;3.10;;;;;;;-141.50;100.00;63355.56;5023047;28;20077;-78
2023/09/13 09:44:33;;;;;;;4.20;3.15;;;;;;;-141.50;100.00;63355.56;5023120;28;20045;-77
2023/09/13 09:47:00;;;;;;;4.72;3.20;;;;;;;-141.50;100.00;63355.56;5013628;28;20046;-77
2023/09/13 09:49:26;;;;;;;6.72;3.40;;;;;;;-141.50;100.00;63355.56;5023851;28;20060;-77
2023/09/13 09:51:53;;;;;;;6.05;3.28;;;;;;;-141.50;100.00;63355.56;5021588;28;20068;-77
2023/09/13 09:54:20;;;;;;;6.50;3.13;;;;;;;-141.50;100.00;63355.56;5016564;28;20058;-76
2023/09/13 09:56:47;;;;;;;5.70;3.40;;;;;;;-141.50;100.00;63355.56;5022849;28;20080;-77
2023/09/13 09:59:14;;;;;;;6.53;3.72;;;;;;;-141.50;100.00;63355.56;5023809;28;20045;-76
2023/09/13 10:01:42;;;;;;;5.85;3.63;;;;;;;-141.50;100.00;63355.56;5021689;28;20507;-76
2023/09/13 10:04:11;;;;;;;6.35;3.40;;;;;;;-141.50;100.00;63355.56;5020299;28;20107;-76
2023/09/13 10:06:59;;;;;;;6.35;3.35;;;;;;;-141.50;100.00;63355.56;5026861;28;20621;-78
2023/09/13 10:09:45;;;;;;;6.05;3.55;;;;;;;-141.50;100.00;63355.56;5027759;28;20037;-78
2023/09/13 10:12:14;;;;;;;8.38;3.45;;;;;;;-141.50;100.00;63355.56;5025812;28;20215;-77
2023/09/13 10:14:42;;;;;;;5.20;3.40;;;;;;;-141.50;100.00;63355.56;5027076;28;20111;-77
2023/09/13 10:17:11;;;;;;;4.88;3.47;;;;;;;-141.50;100.00;63355.56;5028498;28;20049;-78
2023/09/13 10:19:41;;;;;;;6.25;3.83;;;;;;;-141.50;100.00;63355.56;5023363;28;20046;-78
2023/09/13 10:22:13;;;;;;;5.88;4.05;;;;;;;-141.50;100.00;63355.56;5024144;28;21485;-78
2023/09/13 10:24:48;;;;;;;5.85;3.70;;;;;;;-141.50;100.00;63355.56;5021839;28;20038;-78
2023/09/13 10:27:16;;;;;;;;;;;;;;;-141.50;100.00;63355.56;5018921;28;20077;-78
2023/09/13 10:29:54;;;;;;;5.35;3.75;;;;;;;-141.50;100.00;63355.56;5020217;28;19925;-78
2023/09/13 10:32:26;;;;;;;5.32;3.28;;;;;;;-141.50;100.00;63355.56;5023402;28;20052;-80
2023/09/13 10:34:54;;;;;;;5.28;3.50;;;;;;;-141.50;100.00;63355.56;5024325;28;20108;-77
2023/09/13 10:37:27;;;;;;;8.18;3.40;;;;;;;-141.50;100.00;63355.56;5018109;28;20103;-79
2023/09/13 10:40:10;;;;;;;7.13;3.20;;;;;;;-141.50;100.00;63355.56;5021509;28;20037;-78
2023/09/13 10:42:40;;;;;;;5.88;3.80;;;;;;;-141.50;100.00;63355.56;5028168;28;20562;-79
2023/09/13 10:45:08;;;;;;;6.68;3.75;;;;;;;-141.50;100.00;63355.56;5027226;28;20049;-78
2023/09/13 10:47:37;;;;;;;5.57;3.55;;;;;;;-141.50;100.00;63355.56;5017727;28;20068;-78
2023/09/13 10:50:07;;;;;;;5.05;3.28;;;;;;;-141.50;100.00;63355.56;5026615;28;20048;-79
2023/09/13 10:52:35;;;;;;;4.10;2.80;;;;;;;-141.50;100.00;63355.56;5026541;28;20037;-78
2023/09/13 10:55:06;;;;;;;5.45;3.47;;;;;;;-141.50;100.00;63355.56;5025210;28;20060;-79
2023/09/13 10:57:34;;;;;;;3.45;2.63;;;;;;;-141.50;100.00;63355.56;5026390;28;20055;-78
2023/09/13 11:00:08;;;;;;;9.32;3.10;;;;;;;-141.50;100.00;63355.56;5016711;28;20045;-79
2023/09/13 11:02:37;;;;;;;4.10;2.92;;;;;;;-141.50;100.00;63355.56;5026451;28;20065;-78
2023/09/13 11:05:05;;;;;;;5.43;3.00;;;;;;;-141.50;100.00;63355.56;5024689;28;20159;-79
2023/09/13 11:07:40;;;;;;;4.68;2.97;;;;;;;-141.50;100.00;63355.56;5026898;28;20049;-78
2023/09/13 11:10:14;;;;;;;7.00;2.75;;;;;;;-141.50;100.00;63355.56;5021739;28;20049;-78
2023/09/13 11:12:51;;;;;;;3.70;2.72;;;;;;;-141.50;100.00;63355.56;5026703;28;20517;-79
2023/09/13 11:15:22;;;;;;;3.58;2.70;;;;;;;-141.50;100.00;63355.56;5024659;28;20505;-78
2023/09/13 11:17:52;;;;;;;5.63;2.90;;;;;;;-141.50;100.00;63355.56;5026215;28;20099;-78